createdAt,value
2023-01-04T00:01:13.547Z,100290.53
2023-01-04T00:03:41.065Z,100293.97
2023-01-04T00:06:11.858Z,100289.69
2023-01-04T00:08:39.091Z,100301.69
2023-01-04T00:11:26.174Z,100300.84
2023-01-04T00:13:57.538Z,100304.28
2023-01-04T00:16:26.792Z,100299.16
2023-01-04T00:18:54.926Z,100295.75
2023-01-04T00:21:28.684Z,100288.94
2023-01-04T00:23:59.010Z,100292.31
2023-01-04T00:26:29.733Z,100281.22
2023-01-04T00:29:06.660Z,100269.25
2023-01-04T00:31:35.022Z,100275.25
2023-01-04T00:34:04.476Z,100265.81
2023-01-04T00:36:32.372Z,100259.84
2023-01-04T00:39:10.467Z,100252.19
2023-01-04T00:44:28.534Z,100234.25
2023-01-04T00:46:55.588Z,100238.56
2023-01-04T00:49:22.422Z,100237.69
2023-01-04T00:51:49.349Z,100207.00
2023-01-04T00:54:16.608Z,100239.41
2023-01-04T00:56:43.657Z,100232.59
2023-01-04T00:59:13.554Z,100235.16
2023-01-04T01:01:42.018Z,100237.75
2023-01-04T01:04:15.359Z,100236.06
2023-01-04T01:06:42.443Z,100230.94
2023-01-04T01:09:09.918Z,100240.34
2023-01-04T01:11:38.302Z,100230.09
2023-01-04T01:14:06.208Z,100228.38
2023-01-04T01:19:20.069Z,100224.13
2023-01-04T01:21:46.862Z,100220.72
2023-01-04T01:24:19.279Z,100227.56
2023-01-04T01:26:46.423Z,100225.84
2023-01-04T01:29:13.342Z,100228.41
2023-01-04T01:31:41.226Z,100228.44
2023-01-04T01:34:08.789Z,100226.75
2023-01-04T01:36:36.424Z,100219.06
2023-01-04T01:39:03.928Z,100232.72
2023-01-04T01:41:33.351Z,100237.03
2023-01-04T01:44:07.056Z,100243.00
2023-01-04T01:46:45.603Z,100239.56
2023-01-04T01:49:31.925Z,100233.59
2023-01-04T01:52:02.918Z,100236.19
2023-01-04T01:54:35.915Z,100236.19
2023-01-04T01:57:06.342Z,100237.03
2023-01-04T01:59:35.605Z,100218.25
2023-01-04T02:02:02.773Z,100237.91
2023-01-04T02:04:30.811Z,100236.19
2023-01-04T02:06:58.840Z,100231.88
2023-01-04T02:09:25.937Z,100228.47
2023-01-04T02:11:52.914Z,100225.09
2023-01-04T02:14:26.977Z,100221.69
2023-01-04T02:16:59.820Z,100214.81
2023-01-04T02:20:41.022Z,100215.69
2023-01-04T02:23:57.899Z,100225.13
2023-01-04T02:26:42.535Z,100220.84
2023-01-04T02:29:41.838Z,100215.75
2023-01-04T02:32:45.500Z,100215.75
2023-01-04T02:35:32.330Z,100220.88
2023-01-04T02:38:10.474Z,100208.91
2023-01-04T02:41:13.938Z,100197.81
2023-01-04T02:44:17.242Z,100193.56
2023-01-04T02:46:51.265Z,100198.66
2023-01-04T02:49:36.435Z,100200.34
2023-01-04T02:52:03.298Z,100190.97
2023-01-04T02:54:32.447Z,100192.66
2023-01-04T02:57:24.670Z,100191.84
2023-01-04T03:00:12.317Z,100193.56
2023-01-04T03:03:24.127Z,100192.72
2023-01-04T03:06:15.107Z,100179.91
2023-01-04T03:08:49.633Z,100179.03
2023-01-04T03:11:37.360Z,100190.97
2023-01-04T03:14:31.479Z,100182.44
2023-01-04T03:17:04.552Z,100179.03
2023-01-04T03:19:51.962Z,100176.47
2023-01-04T03:22:48.976Z,100173.91
2023-01-04T03:25:38.319Z,100166.22
2023-01-04T03:28:25.632Z,100159.38
2023-01-04T03:31:31.623Z,100151.69
2023-01-04T03:34:16.755Z,100149.13
2023-01-04T03:37:18.984Z,100153.41
2023-01-04T03:40:44.173Z,100149.13
2023-01-04T03:43:39.824Z,100151.69
2023-01-04T03:46:46.968Z,100147.41
2023-01-04T03:49:31.555Z,100150.81
2023-01-04T03:52:03.696Z,100142.31
2023-01-04T03:54:36.844Z,100149.13
2023-01-04T03:57:05.702Z,100155.97
2023-01-04T03:59:41.389Z,100154.28
2023-01-04T04:02:13.875Z,100153.41
2023-01-04T04:05:00.445Z,100153.41
2023-01-04T04:07:46.465Z,100153.41
2023-01-04T04:10:13.302Z,100140.56
2023-01-04T04:12:40.084Z,100144.00
2023-01-04T04:15:07.577Z,100140.56
2023-01-04T04:17:34.351Z,100133.75
2023-01-04T04:20:01.120Z,100135.44
2023-01-04T04:22:27.890Z,100126.91
2023-01-04T04:24:54.668Z,100132.03
2023-01-04T04:27:21.454Z,100118.38
2023-01-04T04:29:48.205Z,100120.94
2023-01-04T04:32:14.985Z,100129.50
2023-01-04T04:34:41.931Z,100105.63
2023-01-04T04:37:08.951Z,100121.78
2023-01-04T04:39:35.754Z,100114.13
2023-01-04T04:42:02.507Z,100113.28
2023-01-04T04:44:29.301Z,100118.38
2023-01-04T04:46:56.083Z,100114.94
2023-01-04T04:49:22.826Z,100120.09
2023-01-04T04:51:49.747Z,100121.81
2023-01-04T04:54:20.069Z,100114.94
2023-01-04T04:56:48.511Z,100114.09
2023-01-04T04:59:16.500Z,100118.34
2023-01-04T05:01:43.370Z,100107.25
2023-01-04T05:04:16.249Z,100104.69
2023-01-04T05:06:44.652Z,100104.69
2023-01-04T05:09:13.391Z,100093.59
2023-01-04T05:11:59.585Z,100092.72
2023-01-04T05:14:27.288Z,100091.00
2023-01-04T05:16:54.330Z,100089.25
2023-01-04T05:19:21.174Z,100091.81
2023-01-04T05:21:47.915Z,100102.91
2023-01-04T05:24:14.821Z,100098.63
2023-01-04T05:26:41.647Z,100102.91
2023-01-04T05:29:28.436Z,100102.88
2023-01-04T05:31:55.425Z,100091.78
2023-01-04T05:34:22.610Z,100089.22
2023-01-04T05:36:49.440Z,100024.47
2023-01-04T05:39:16.199Z,100089.19
2023-01-04T05:42:01.468Z,100093.47
2023-01-04T05:44:28.249Z,100080.63
2023-01-04T05:46:55.078Z,100078.88
2023-01-04T05:49:21.881Z,100083.16
2023-01-04T05:51:48.696Z,100090.81
2023-01-04T05:54:20.833Z,100075.44
2023-01-04T05:56:48.167Z,100075.41
2023-01-04T05:59:15.993Z,100082.25
2023-01-04T06:01:42.878Z,100074.59
2023-01-04T06:04:09.813Z,100082.31
2023-01-04T06:06:36.627Z,100082.28
2023-01-04T06:09:03.510Z,100085.69
2023-01-04T06:11:30.384Z,100077.13
2023-01-04T06:13:57.167Z,100077.09
2023-01-04T06:16:24.177Z,100025.94
2023-01-04T06:18:51.046Z,100074.50
2023-01-04T06:21:17.970Z,100071.91
2023-01-04T06:23:44.818Z,100068.47
2023-01-04T06:26:11.731Z,100065.88
2023-01-04T06:28:41.041Z,100066.72
2023-01-04T06:31:10.443Z,100062.44
2023-01-04T06:33:37.730Z,100058.16
2023-01-04T06:36:06.062Z,100049.66
2023-01-04T06:38:34.183Z,100060.72
2023-01-04T06:41:01.328Z,100048.75
2023-01-04T06:43:28.100Z,100052.16
2023-01-04T06:45:54.895Z,100056.38
2023-01-04T06:48:21.739Z,100058.06
2023-01-04T06:50:48.563Z,100054.63
2023-01-04T06:53:15.335Z,100050.38
2023-01-04T06:55:44.921Z,100046.00
2023-01-04T06:58:11.839Z,100040.91
2023-01-04T07:00:38.662Z,100032.41
2023-01-04T07:03:13.540Z,100046.81
2023-01-04T07:05:41.988Z,100058.75
2023-01-04T07:08:08.781Z,100055.34
2023-01-04T07:10:35.699Z,100051.94
2023-01-04T07:13:02.796Z,100049.34
2023-01-04T07:15:38.926Z,100053.59
2023-01-04T07:18:09.150Z,100011.00
2023-01-04T07:20:37.695Z,100051.00
2023-01-04T07:23:06.481Z,100057.84
2023-01-04T07:25:33.381Z,100054.38
2023-01-04T07:28:00.517Z,100020.31
2023-01-04T07:30:27.423Z,100050.94
2023-01-04T07:32:55.791Z,100042.38
2023-01-04T07:35:23.555Z,100027.06
2023-01-04T07:37:57.908Z,100045.84
2023-01-04T07:40:25.939Z,100051.00
2023-01-04T07:42:59.649Z,100030.66
2023-01-04T07:45:27.525Z,100034.00
2023-01-04T07:47:54.490Z,100028.81
2023-01-04T07:50:21.340Z,100029.63
2023-01-04T07:52:48.224Z,100036.41
2023-01-04T07:55:15.057Z,100032.09
2023-01-04T07:57:41.899Z,100032.91
2023-01-04T08:00:09.548Z,100027.75
2023-01-04T08:02:36.538Z,100025.22
2023-01-04T08:05:03.649Z,100018.31
2023-01-04T08:07:30.526Z,100022.59
2023-01-04T08:09:57.363Z,100017.47
2023-01-04T08:12:24.189Z,100015.75
2023-01-04T08:14:51.051Z,100015.75
2023-01-04T08:17:17.848Z,100017.47
2023-01-04T08:19:46.664Z,100015.75
2023-01-04T08:22:14.163Z,100009.81
2023-01-04T08:24:40.989Z,100012.28
2023-01-04T08:27:08.310Z,100007.13
2023-01-04T08:29:35.584Z,100000.25
2023-01-04T08:32:02.863Z,99989.09
2023-01-04T08:34:31.091Z,99995.91
2023-01-04T08:36:58.502Z,99991.56
2023-01-04T08:39:25.378Z,99994.13
2023-01-04T08:41:59.380Z,99991.50
2023-01-04T08:44:30.152Z,99994.03
2023-01-04T08:46:58.724Z,99961.69
2023-01-04T08:49:25.670Z,99993.09
2023-01-04T08:51:52.740Z,99992.19
2023-01-04T08:54:19.588Z,99988.88
2023-01-04T08:56:46.413Z,99980.41
2023-01-04T08:59:13.790Z,99974.38
2023-01-04T09:01:40.987Z,99967.47
2023-01-04T09:04:08.525Z,99970.03
2023-01-04T09:06:37.048Z,99964.03
2023-01-04T09:09:04.018Z,99952.84
2023-01-04T09:11:30.759Z,99963.13
2023-01-04T09:14:07.156Z,99961.34
2023-01-04T09:16:36.521Z,99957.06
2023-01-04T09:19:04.250Z,99968.06
2023-01-04T09:21:31.238Z,99961.13
2023-01-04T09:23:58.928Z,99952.53
2023-01-04T09:26:25.989Z,99946.44
2023-01-04T09:28:55.961Z,99959.25
2023-01-04T09:31:26.181Z,99940.34
2023-01-04T09:36:41.515Z,99946.28
2023-01-04T09:39:11.830Z,99948.78
2023-01-04T09:41:58.346Z,99947.91
2023-01-04T09:47:59.234Z,99965.00
2023-01-04T09:50:33.609Z,99952.06
2023-01-04T09:53:21.713Z,99957.09
2023-01-04T09:55:53.269Z,99959.66
2023-01-04T09:58:40.304Z,99950.16
2023-01-04T10:01:34.100Z,99945.88
2023-01-04T10:04:36.383Z,99949.28
2023-01-04T10:07:05.424Z,99948.38
2023-01-04T10:09:33.755Z,99938.06
2023-01-04T10:12:16.536Z,99941.47
2023-01-04T10:15:26.990Z,99938.88
2023-01-04T10:21:43.425Z,99920.69
2023-01-04T10:24:26.715Z,99913.00
2023-01-04T10:27:06.296Z,99906.06
2023-01-04T10:29:53.346Z,99907.75
2023-01-04T10:32:44.816Z,99903.38
2023-01-04T10:35:27.224Z,99900.78
2023-01-04T10:38:04.226Z,99890.56
2023-01-04T10:40:39.210Z,99904.09
2023-01-04T10:43:30.569Z,99891.16
2023-01-04T10:46:49.446Z,99888.59
2023-01-04T10:49:43.155Z,99870.63
2023-01-04T10:52:24.910Z,99873.94
2023-01-04T10:55:05.209Z,99881.66
2023-01-04T10:57:51.774Z,99864.56
2023-01-04T11:00:28.874Z,99873.84
2023-01-04T11:03:34.137Z,99872.84
2023-01-04T11:06:17.388Z,99875.28
2023-01-04T11:08:46.938Z,99869.34
2023-01-04T11:11:26.148Z,99862.53
2023-01-04T11:13:53.528Z,99857.44
2023-01-04T11:16:20.382Z,99851.25
2023-01-04T11:18:49.420Z,99854.69
2023-01-04T11:21:21.279Z,99850.78
2023-01-04T11:23:48.040Z,99845.16
2023-01-04T11:26:29.294Z,99840.63
2023-01-04T11:29:05.368Z,99835.63
2023-01-04T11:31:44.207Z,99840.59
2023-01-04T11:34:11.065Z,99830.13
2023-01-04T11:36:43.839Z,99825.66
2023-01-04T11:39:21.929Z,99812.59
2023-01-04T11:42:03.394Z,99818.47
2023-01-04T11:44:35.821Z,99812.56
2023-01-04T11:47:17.982Z,99813.88
2023-01-04T11:49:45.101Z,99815.72
2023-01-04T11:52:33.962Z,99811.22
2023-01-04T11:55:28.024Z,99812.19
2023-01-04T11:58:17.026Z,99807.72
2023-01-04T12:00:57.815Z,99817.06
2023-01-04T12:03:39.169Z,99803.09
2023-01-04T12:06:22.707Z,99802.13
2023-01-04T12:08:49.834Z,99812.38
2023-01-04T12:11:40.486Z,99807.06
2023-01-04T12:14:27.220Z,99814.03
2023-01-04T12:17:21.450Z,99802.81
2023-01-04T12:19:50.685Z,99807.97
2023-01-04T12:22:39.436Z,99807.00
2023-01-04T12:25:43.699Z,99803.38
2023-01-04T12:28:35.659Z,99800.16
2023-01-04T12:31:21.684Z,99796.69
2023-01-04T12:34:00.534Z,99791.34
2023-01-04T12:36:39.550Z,99795.75
2023-01-04T12:39:38.883Z,99794.06
2023-01-04T12:42:19.439Z,99798.47
2023-01-04T12:44:51.820Z,99786.38
2023-01-04T12:47:37.108Z,99781.94
2023-01-04T12:50:23.044Z,99780.09
2023-01-04T12:55:44.168Z,99775.41
2023-01-04T12:59:06.978Z,99765.69
2023-01-04T13:01:29.159Z,99758.66
2023-01-04T13:04:41.070Z,99758.03
2023-01-04T13:07:37.345Z,99761.44
2023-01-04T13:10:40.363Z,99750.75
2023-01-04T13:13:12.585Z,99747.31
2023-01-04T13:16:10.646Z,99754.03
2023-01-04T13:18:54.682Z,99727.06
2023-01-04T13:21:41.247Z,99721.91
2023-01-04T13:24:27.915Z,99726.56
2023-01-04T13:26:55.331Z,99718.78
2023-01-04T13:29:27.453Z,99722.63
2023-01-04T13:32:19.633Z,99711.41
2023-01-04T13:35:18.617Z,99713.59
2023-01-04T13:37:48.281Z,99716.97
2023-01-04T13:40:35.754Z,99704.13
2023-01-04T13:43:43.070Z,99697.75
2023-01-04T13:46:20.333Z,99696.19
2023-01-04T13:48:52.005Z,99701.13
2023-01-04T13:51:23.786Z,99698.72
2023-01-04T13:54:01.790Z,99701.94
2023-01-04T13:56:34.976Z,99709.75
2023-01-04T14:03:07.684Z,99695.66
2023-01-04T14:05:35.976Z,99688.59
2023-01-04T14:08:08.662Z,99687.84
2023-01-04T14:10:36.370Z,99687.03
2023-01-04T14:13:04.430Z,99687.00
2023-01-04T14:15:33.717Z,99688.41
2023-01-04T14:18:00.679Z,99689.16
2023-01-04T14:20:27.292Z,99683.00
2023-01-04T14:22:56.647Z,99685.69
2023-01-04T14:25:37.990Z,99682.16
2023-01-04T14:28:29.108Z,99682.44
2023-01-04T14:31:03.665Z,99680.72
2023-01-04T14:33:36.529Z,99676.41
2023-01-04T14:36:30.063Z,99683.63
2023-01-04T14:39:18.595Z,99673.88
2023-01-04T14:41:54.619Z,99666.19
2023-01-04T14:44:30.486Z,99666.81
2023-01-04T14:47:00.684Z,99657.81
2023-01-04T14:49:28.367Z,99660.88
2023-01-04T14:51:58.205Z,99675.53
2023-01-04T14:54:27.628Z,99675.13
2023-01-04T14:56:56.597Z,99669.44
2023-01-04T14:59:24.382Z,99670.50
2023-01-04T15:01:53.248Z,99664.38
2023-01-04T15:04:20.286Z,99658.28
2023-01-04T15:07:00.286Z,99647.44
2023-01-04T15:09:29.178Z,99656.69
2023-01-04T15:11:56.351Z,99659.09
2023-01-04T15:14:23.561Z,99655.09
2023-01-04T15:16:50.836Z,99651.59
2023-01-04T15:19:17.943Z,99668.03
2023-01-04T15:21:44.856Z,99660.31
2023-01-04T15:24:11.607Z,99654.00
2023-01-04T15:26:39.728Z,99653.94
2023-01-04T15:29:08.371Z,99650.53
2023-01-04T15:31:39.809Z,99647.75
2023-01-04T15:34:09.181Z,99629.09
2023-01-04T15:36:38.609Z,99641.50
2023-01-04T15:39:07.137Z,99649.38
2023-01-04T15:41:53.281Z,99630.56
2023-01-04T15:44:20.069Z,99633.81
2023-01-04T15:46:47.105Z,99627.38
2023-01-04T15:49:17.431Z,99629.22
2023-01-04T15:51:45.877Z,99638.94
2023-01-04T15:54:13.227Z,99627.97
2023-01-04T15:56:40.133Z,99630.75
2023-01-04T15:59:07.095Z,99635.06
2023-01-04T16:01:33.960Z,99633.75
2023-01-04T16:04:00.872Z,99627.38
2023-01-04T16:06:27.641Z,99617.06
2023-01-04T16:08:54.467Z,99614.69
2023-01-04T16:11:23.471Z,99609.09
2023-01-04T16:13:52.540Z,99612.09
2023-01-04T16:16:23.016Z,99611.75
2023-01-04T16:18:55.317Z,99601.50
2023-01-04T16:21:28.475Z,99601.53
2023-01-04T16:24:04.553Z,99596.44
2023-01-04T16:26:36.708Z,99582.28
2023-01-04T16:29:04.292Z,99589.97
2023-01-04T16:31:35.856Z,99582.13
2023-01-04T16:34:03.346Z,99595.41
2023-01-04T16:36:30.564Z,99592.94
2023-01-04T16:38:57.571Z,99596.16
2023-01-04T16:41:25.026Z,99603.91
2023-01-04T16:43:58.883Z,99591.69
2023-01-04T16:46:28.819Z,99599.69
2023-01-04T16:49:03.172Z,99576.56
2023-01-04T16:51:33.427Z,99579.63
2023-01-04T16:54:03.896Z,99576.34
2023-01-04T16:56:31.735Z,99581.66
2023-01-04T16:58:58.520Z,99569.56
2023-01-04T17:01:28.607Z,99569.38
2023-01-04T17:03:58.850Z,99563.41
2023-01-04T17:06:29.548Z,99565.91
2023-01-04T17:08:58.385Z,99571.19
2023-01-04T17:14:19.294Z,99566.00
2023-01-04T17:16:46.113Z,99568.44
2023-01-04T17:19:12.948Z,99567.44
2023-01-04T17:21:39.707Z,99552.88
2023-01-04T17:24:06.954Z,99549.22
2023-01-04T17:26:33.984Z,99536.63
2023-01-04T17:29:01.976Z,99551.81
2023-01-04T17:31:36.695Z,99553.53
2023-01-04T17:34:03.670Z,99556.97
2023-01-04T17:36:30.603Z,99549.66
2023-01-04T17:39:00.514Z,99548.69
2023-01-04T17:41:29.585Z,99544.28
2023-01-04T17:44:02.952Z,99542.75
2023-01-04T17:46:33.624Z,99536.00
2023-01-04T17:49:22.336Z,99547.94
2023-01-04T17:51:50.970Z,99545.41
2023-01-04T17:54:18.497Z,99538.50
2023-01-04T17:56:45.287Z,99547.13
2023-01-04T17:59:12.498Z,99545.13
2023-01-04T18:01:39.407Z,99536.44
2023-01-04T18:04:06.219Z,99530.38
2023-01-04T18:06:35.893Z,99531.88
2023-01-04T18:09:06.550Z,99533.81
2023-01-04T18:11:34.653Z,99528.50
2023-01-04T18:14:04.186Z,99530.16
2023-01-04T18:16:54.822Z,99530.09
2023-01-04T18:19:27.952Z,99537.28
2023-01-04T18:21:55.604Z,99537.78
2023-01-04T18:24:40.721Z,99515.84
2023-01-04T18:27:21.499Z,99532.88
2023-01-04T18:29:50.457Z,99515.72
2023-01-04T18:32:17.874Z,99517.22
2023-01-04T18:34:45.378Z,99499.28
2023-01-04T18:37:12.381Z,99508.06
2023-01-04T18:39:39.308Z,99516.84
2023-01-04T18:42:06.184Z,99510.88
2023-01-04T18:44:34.827Z,99514.06
2023-01-04T18:47:03.587Z,99519.13
2023-01-04T18:49:30.992Z,99533.66
2023-01-04T18:51:58.895Z,99525.16
2023-01-04T18:54:25.813Z,99525.88
2023-01-04T18:56:57.289Z,99518.66
2023-01-04T18:59:28.276Z,99519.31
2023-01-04T19:02:00.543Z,99526.66
2023-01-04T19:04:29.744Z,99534.50
2023-01-04T19:06:56.542Z,99534.38
2023-01-04T19:09:23.470Z,99541.13
2023-01-04T19:11:50.413Z,99535.47
2023-01-04T19:14:17.804Z,99563.09
2023-01-04T19:16:44.687Z,99540.59
2023-01-04T19:19:11.570Z,99534.22
2023-01-04T19:21:38.325Z,99529.91
2023-01-04T19:24:05.259Z,99529.91
2023-01-04T19:26:32.006Z,99541.22
2023-01-04T19:28:58.867Z,99538.00
2023-01-04T19:31:25.633Z,99547.53
2023-01-04T19:33:52.450Z,99553.50
2023-01-04T19:36:19.681Z,99554.25
2023-01-04T19:38:46.802Z,99558.03
2023-01-04T19:41:29.134Z,99569.31
2023-01-04T19:43:58.208Z,99565.88
2023-01-04T19:46:25.216Z,99569.44
2023-01-04T19:48:52.132Z,99579.63
2023-01-04T19:51:19.105Z,99587.41
2023-01-04T19:53:46.051Z,99575.41
2023-01-04T19:56:14.450Z,99575.88
2023-01-04T19:58:41.332Z,99577.03
2023-01-04T20:01:20.598Z,99586.53
2023-01-04T20:03:48.486Z,99591.69
2023-01-04T20:06:16.012Z,99593.50
2023-01-04T20:08:43.519Z,99587.47
2023-01-04T20:11:11.750Z,99595.41
2023-01-04T20:13:39.417Z,99591.19
2023-01-04T20:16:07.554Z,99588.44
2023-01-04T20:18:35.198Z,99600.50
2023-01-04T20:21:06.343Z,99588.31
2023-01-04T20:23:33.104Z,99596.69
2023-01-04T20:26:11.223Z,99587.47
2023-01-04T20:28:39.081Z,99600.50
2023-01-04T20:31:09.042Z,99608.34
2023-01-04T20:33:35.935Z,99584.81
2023-01-04T20:36:16.403Z,99595.03
2023-01-04T20:38:45.694Z,99601.09
2023-01-04T20:41:32.295Z,99597.22
2023-01-04T20:44:00.080Z,99596.22
2023-01-04T20:46:32.617Z,99606.59
2023-01-04T20:49:00.912Z,99600.50
2023-01-04T20:51:29.770Z,99597.13
2023-01-04T20:53:59.754Z,99618.56
2023-01-04T20:56:28.815Z,99606.19
2023-01-04T20:58:55.975Z,99585.19
2023-01-04T21:01:22.961Z,99596.28
2023-01-04T21:03:50.294Z,99584.44
2023-01-04T21:06:18.362Z,99586.97
2023-01-04T21:08:45.860Z,99590.31
2023-01-04T21:11:13.632Z,99595.50
2023-01-04T21:13:40.533Z,99592.03
2023-01-04T21:16:08.054Z,99586.53
2023-01-04T21:18:34.926Z,99604.22
2023-01-04T21:21:07.055Z,99590.72
2023-01-04T21:23:34.198Z,99581.06
2023-01-04T21:26:08.599Z,99580.22
2023-01-04T21:28:36.076Z,99588.13
2023-01-04T21:31:09.049Z,99585.53
2023-01-04T21:33:35.947Z,99586.00
2023-01-04T21:36:24.791Z,99595.72
2023-01-04T21:38:54.590Z,99593.19
2023-01-04T21:41:24.626Z,99589.72
2023-01-04T21:43:54.853Z,99581.78
2023-01-04T21:46:22.923Z,99583.66
2023-01-04T21:48:55.456Z,99569.00
2023-01-04T21:51:22.671Z,99549.66
2023-01-04T21:53:49.494Z,99550.91
2023-01-04T21:56:19.491Z,99542.34
2023-01-04T21:58:46.413Z,99557.81
2023-01-04T22:01:19.677Z,99535.72
2023-01-04T22:03:46.628Z,99523.88
2023-01-04T22:06:14.056Z,99535.63
2023-01-04T22:08:46.221Z,99523.69
2023-01-04T22:11:14.586Z,99527.91
2023-01-04T22:13:41.613Z,99539.25
2023-01-04T22:16:13.184Z,99537.06
2023-01-04T22:18:40.375Z,99523.56
2023-01-04T22:21:11.672Z,99527.56
2023-01-04T22:23:38.506Z,99520.72
2023-01-04T22:26:05.545Z,99531.31
2023-01-04T22:28:36.755Z,99505.94
2023-01-04T22:31:06.785Z,99500.44
2023-01-04T22:33:35.443Z,99478.97
2023-01-04T22:36:19.082Z,99497.47
2023-01-04T22:38:48.288Z,99495.69
2023-01-04T22:41:18.798Z,99470.22
2023-01-04T22:43:46.074Z,99461.63
2023-01-04T22:46:17.843Z,99468.34
2023-01-04T22:48:45.473Z,99448.31
2023-01-04T22:51:17.377Z,99475.59
2023-01-04T22:53:44.856Z,99488.13
2023-01-04T22:56:19.493Z,99496.47
2023-01-04T22:58:54.592Z,99494.72
2023-01-04T23:01:29.585Z,99470.41
2023-01-04T23:03:58.612Z,99475.94
2023-01-04T23:06:27.861Z,99471.59
2023-01-04T23:09:04.512Z,99472.19
2023-01-04T23:11:33.342Z,99472.25
2023-01-04T23:14:03.707Z,99460.25
2023-01-04T23:16:33.121Z,99456.28
2023-01-04T23:19:01.648Z,99451.88
2023-01-04T23:21:29.061Z,99456.16
2023-01-04T23:23:55.952Z,99449.94
2023-01-04T23:26:25.084Z,99454.09
2023-01-04T23:28:52.494Z,99450.38
2023-01-04T23:31:23.103Z,99450.22
2023-01-04T23:34:00.155Z,99462.53
2023-01-04T23:36:31.715Z,99451.91
2023-01-04T23:39:03.854Z,99431.81
2023-01-04T23:41:46.446Z,99427.19
2023-01-04T23:44:26.436Z,99441.00
2023-01-04T23:46:57.569Z,99450.59
2023-01-04T23:49:26.143Z,99458.09
2023-01-04T23:51:53.842Z,99441.53
2023-01-04T23:54:21.512Z,99441.41
2023-01-04T23:56:48.329Z,99430.63
2023-01-04T23:59:15.185Z,99428.31
